sensor_id;sensor_type;location;lat;lon;timestamp;temperature;humidity
19692;DHT22;42748;50.016;19.890;2022-10-16T00:01:28;14.30;99.90
19692;DHT22;42748;50.016;19.890;2022-10-16T00:03:57;14.30;99.90
19692;DHT22;42748;50.016;19.890;2022-10-16T00:06:27;14.30;99.90
19692;DHT22;42748;50.016;19.890;2022-10-16T00:08:55;14.30;99.90
19692;DHT22;42748;50.016;19.890;2022-10-16T00:11:25;14.30;99.90
19692;DHT22;42748;50.016;19.890;2022-10-16T00:13:56;14.30;99.90
19692;DHT22;42748;50.016;19.890;2022-10-16T00:16:24;14.20;99.90
19692;DHT22;42748;50.016;19.890;2022-10-16T00:18:51;14.20;99.90
19692;DHT22;42748;50.016;19.890;2022-10-16T00:21:25;14.30;99.90
19692;DHT22;42748;50.016;19.890;2022-10-16T00:24:07;14.20;99.90
19692;DHT22;42748;50.016;19.890;2022-10-16T00:26:36;14.20;99.90
19692;DHT22;42748;50.016;19.890;2022-10-16T00:29:04;14.20;99.90
19692;DHT22;42748;50.016;19.890;2022-10-16T00:31:32;14.20;99.90
19692;DHT22;42748;50.016;19.890;2022-10-16T00:33:59;14.30;99.90
19692;DHT22;42748;50.016;19.890;2022-10-16T00:36:27;14.20;99.90
19692;DHT22;42748;50.016;19.890;2022-10-16T00:38:57;14.10;99.90
19692;DHT22;42748;50.016;19.890;2022-10-16T00:41:31;14.10;99.90
19692;DHT22;42748;50.016;19.890;2022-10-16T00:44:02;14.00;99.90
19692;DHT22;42748;50.016;19.890;2022-10-16T00:46:39;14.00;99.90
19692;DHT22;42748;50.016;19.890;2022-10-16T00:49:13;14.00;99.90
19692;DHT22;42748;50.016;19.890;2022-10-16T00:51:46;14.00;99.90
19692;DHT22;42748;50.016;19.890;2022-10-16T00:54:21;14.00;99.90
19692;DHT22;42748;50.016;19.890;2022-10-16T00:56:50;14.00;99.90
19692;DHT22;42748;50.016;19.890;2022-10-16T00:59:27;14.00;99.90
19692;DHT22;42748;50.016;19.890;2022-10-16T01:01:55;14.00;99.90
19692;DHT22;42748;50.016;19.890;2022-10-16T01:04:23;14.10;99.90
19692;DHT22;42748;50.016;19.890;2022-10-16T01:06:53;14.20;99.90
19692;DHT22;42748;50.016;19.890;2022-10-16T01:15:33;14.10;99.90
19692;DHT22;42748;50.016;19.890;2022-10-16T01:18:25;14.10;99.90
19692;DHT22;42748;50.016;19.890;2022-10-16T01:21:07;14.10;99.90
19692;DHT22;42748;50.016;19.890;2022-10-16T01:29:01;13.90;99.90
19692;DHT22;42748;50.016;19.890;2022-10-16T01:31:34;13.90;99.90
19692;DHT22;42748;50.016;19.890;2022-10-16T01:34:22;13.90;99.90
19692;DHT22;42748;50.016;19.890;2022-10-16T01:36:53;13.90;99.90
19692;DHT22;42748;50.016;19.890;2022-10-16T01:39:28;13.90;99.90
19692;DHT22;42748;50.016;19.890;2022-10-16T01:42:11;13.90;99.90
19692;DHT22;42748;50.016;19.890;2022-10-16T01:44:41;13.90;99.90
19692;DHT22;42748;50.016;19.890;2022-10-16T01:47:10;13.90;99.90
19692;DHT22;42748;50.016;19.890;2022-10-16T01:49:39;13.90;99.90
19692;DHT22;42748;50.016;19.890;2022-10-16T01:52:10;13.90;99.90
19692;DHT22;42748;50.016;19.890;2022-10-16T01:54:41;13.90;99.90
19692;DHT22;42748;50.016;19.890;2022-10-16T01:57:10;13.90;99.90
19692;DHT22;42748;50.016;19.890;2022-10-16T01:59:42;13.90;99.90
19692;DHT22;42748;50.016;19.890;2022-10-16T02:02:10;13.90;99.90
19692;DHT22;42748;50.016;19.890;2022-10-16T02:04:43;13.80;99.90
19692;DHT22;42748;50.016;19.890;2022-10-16T02:07:11;13.90;99.90
19692;DHT22;42748;50.016;19.890;2022-10-16T02:09:38;13.90;99.90
19692;DHT22;42748;50.016;19.890;2022-10-16T02:12:15;13.90;99.90
19692;DHT22;42748;50.016;19.890;2022-10-16T02:14:43;13.90;99.90
19692;DHT22;42748;50.016;19.890;2022-10-16T02:17:16;14.00;99.90
19692;DHT22;42748;50.016;19.890;2022-10-16T02:19:45;14.00;99.90
19692;DHT22;42748;50.016;19.890;2022-10-16T02:22:22;14.00;99.90
19692;DHT22;42748;50.016;19.890;2022-10-16T02:25:11;14.00;99.90
19692;DHT22;42748;50.016;19.890;2022-10-16T02:27:55;14.10;99.90
19692;DHT22;42748;50.016;19.890;2022-10-16T02:33:03;14.10;99.90
19692;DHT22;42748;50.016;19.890;2022-10-16T02:35:32;14.10;99.90
19692;DHT22;42748;50.016;19.890;2022-10-16T02:37:59;14.10;99.90
19692;DHT22;42748;50.016;19.890;2022-10-16T02:40:26;14.00;99.90
19692;DHT22;42748;50.016;19.890;2022-10-16T02:42:54;14.00;99.90
19692;DHT22;42748;50.016;19.890;2022-10-16T02:45:23;13.90;99.90
19692;DHT22;42748;50.016;19.890;2022-10-16T02:47:51;13.80;99.90
19692;DHT22;42748;50.016;19.890;2022-10-16T02:50:18;13.80;99.90
19692;DHT22;42748;50.016;19.890;2022-10-16T02:52:45;13.80;99.90
19692;DHT22;42748;50.016;19.890;2022-10-16T02:55:12;13.80;99.90
19692;DHT22;42748;50.016;19.890;2022-10-16T02:57:40;13.70;99.90
19692;DHT22;42748;50.016;19.890;2022-10-16T03:00:09;13.70;99.90
19692;DHT22;42748;50.016;19.890;2022-10-16T03:02:36;13.70;99.90
19692;DHT22;42748;50.016;19.890;2022-10-16T03:05:04;13.60;99.90
19692;DHT22;42748;50.016;19.890;2022-10-16T03:07:31;13.60;99.90
19692;DHT22;42748;50.016;19.890;2022-10-16T03:09:58;13.50;99.90
19692;DHT22;42748;50.016;19.890;2022-10-16T03:12:27;13.40;99.90
19692;DHT22;42748;50.016;19.890;2022-10-16T03:14:55;13.40;99.90
19692;DHT22;42748;50.016;19.890;2022-10-16T03:17:23;13.50;99.90
19692;DHT22;42748;50.016;19.890;2022-10-16T03:19:51;13.50;99.90
19692;DHT22;42748;50.016;19.890;2022-10-16T03:22:18;13.60;99.90
19692;DHT22;42748;50.016;19.890;2022-10-16T03:24:45;13.70;99.90
19692;DHT22;42748;50.016;19.890;2022-10-16T03:27:12;13.70;99.90
19692;DHT22;42748;50.016;19.890;2022-10-16T03:29:39;13.70;99.90
19692;DHT22;42748;50.016;19.890;2022-10-16T03:32:06;13.60;99.90
19692;DHT22;42748;50.016;19.890;2022-10-16T03:34:33;13.60;99.90
19692;DHT22;42748;50.016;19.890;2022-10-16T03:37:00;13.50;99.90
19692;DHT22;42748;50.016;19.890;2022-10-16T03:39:27;13.40;99.90
19692;DHT22;42748;50.016;19.890;2022-10-16T03:41:54;13.40;99.90
19692;DHT22;42748;50.016;19.890;2022-10-16T03:44:21;13.30;99.90
19692;DHT22;42748;50.016;19.890;2022-10-16T03:46:48;13.20;99.90
19692;DHT22;42748;50.016;19.890;2022-10-16T03:49:16;13.10;99.90
19692;DHT22;42748;50.016;19.890;2022-10-16T03:51:42;13.10;99.90
19692;DHT22;42748;50.016;19.890;2022-10-16T03:54:10;13.00;99.90
19692;DHT22;42748;50.016;19.890;2022-10-16T03:56:37;13.00;99.90
19692;DHT22;42748;50.016;19.890;2022-10-16T03:59:04;13.00;99.90
19692;DHT22;42748;50.016;19.890;2022-10-16T04:01:31;13.00;99.90
19692;DHT22;42748;50.016;19.890;2022-10-16T04:03:58;12.90;99.90
19692;DHT22;42748;50.016;19.890;2022-10-16T04:06:25;12.90;99.90
19692;DHT22;42748;50.016;19.890;2022-10-16T04:08:52;12.90;99.90
19692;DHT22;42748;50.016;19.890;2022-10-16T04:11:19;12.90;99.90
19692;DHT22;42748;50.016;19.890;2022-10-16T04:13:46;13.00;99.90
19692;DHT22;42748;50.016;19.890;2022-10-16T04:16:14;12.90;99.90
19692;DHT22;42748;50.016;19.890;2022-10-16T04:18:41;12.90;99.90
19692;DHT22;42748;50.016;19.890;2022-10-16T04:21:08;12.90;99.90
19692;DHT22;42748;50.016;19.890;2022-10-16T04:23:35;12.90;99.90
19692;DHT22;42748;50.016;19.890;2022-10-16T04:26:02;12.90;99.90
19692;DHT22;42748;50.016;19.890;2022-10-16T04:28:29;12.90;99.90
19692;DHT22;42748;50.016;19.890;2022-10-16T04:30:57;12.90;99.90
19692;DHT22;42748;50.016;19.890;2022-10-16T04:33:24;12.80;99.90
19692;DHT22;42748;50.016;19.890;2022-10-16T04:35:59;12.80;99.90
19692;DHT22;42748;50.016;19.890;2022-10-16T04:38:26;12.80;99.90
19692;DHT22;42748;50.016;19.890;2022-10-16T04:40:53;12.80;99.90
19692;DHT22;42748;50.016;19.890;2022-10-16T04:43:20;12.80;99.90
19692;DHT22;42748;50.016;19.890;2022-10-16T04:45:48;12.90;99.90
19692;DHT22;42748;50.016;19.890;2022-10-16T04:48:18;12.90;99.90
19692;DHT22;42748;50.016;19.890;2022-10-16T04:50:45;12.90;99.90
19692;DHT22;42748;50.016;19.890;2022-10-16T04:53:19;12.90;99.90
19692;DHT22;42748;50.016;19.890;2022-10-16T04:55:46;12.80;99.90
19692;DHT22;42748;50.016;19.890;2022-10-16T04:58:13;12.80;99.90
19692;DHT22;42748;50.016;19.890;2022-10-16T05:00:40;12.80;99.90
19692;DHT22;42748;50.016;19.890;2022-10-16T05:03:07;12.80;99.90
19692;DHT22;42748;50.016;19.890;2022-10-16T05:05:36;12.80;99.90
19692;DHT22;42748;50.016;19.890;2022-10-16T05:08:03;12.80;99.90
19692;DHT22;42748;50.016;19.890;2022-10-16T05:10:30;12.80;99.90
19692;DHT22;42748;50.016;19.890;2022-10-16T05:12:57;12.80;99.90
19692;DHT22;42748;50.016;19.890;2022-10-16T05:15:25;12.80;99.90
19692;DHT22;42748;50.016;19.890;2022-10-16T05:17:53;12.80;99.90
19692;DHT22;42748;50.016;19.890;2022-10-16T05:20:21;12.90;99.90
19692;DHT22;42748;50.016;19.890;2022-10-16T05:22:49;12.90;99.90
19692;DHT22;42748;50.016;19.890;2022-10-16T05:25:16;13.00;99.90
19692;DHT22;42748;50.016;19.890;2022-10-16T05:27:46;13.10;99.90
19692;DHT22;42748;50.016;19.890;2022-10-16T05:30:13;13.10;99.90
19692;DHT22;42748;50.016;19.890;2022-10-16T05:32:40;13.10;99.90
19692;DHT22;42748;50.016;19.890;2022-10-16T05:35:08;13.10;99.90
19692;DHT22;42748;50.016;19.890;2022-10-16T05:37:38;12.90;99.90
19692;DHT22;42748;50.016;19.890;2022-10-16T05:40:06;12.90;99.90
19692;DHT22;42748;50.016;19.890;2022-10-16T05:42:33;12.90;99.90
19692;DHT22;42748;50.016;19.890;2022-10-16T05:45:00;13.10;99.90
19692;DHT22;42748;50.016;19.890;2022-10-16T05:47:27;13.40;99.90
19692;DHT22;42748;50.016;19.890;2022-10-16T05:49:54;13.80;99.90
19692;DHT22;42748;50.016;19.890;2022-10-16T05:52:22;14.10;99.90
19692;DHT22;42748;50.016;19.890;2022-10-16T05:54:49;14.30;99.90
19692;DHT22;42748;50.016;19.890;2022-10-16T05:57:16;14.30;99.90
19692;DHT22;42748;50.016;19.890;2022-10-16T05:59:44;14.20;99.90
19692;DHT22;42748;50.016;19.890;2022-10-16T06:02:14;14.10;99.90
19692;DHT22;42748;50.016;19.890;2022-10-16T06:04:41;14.10;99.90
19692;DHT22;42748;50.016;19.890;2022-10-16T06:07:08;14.00;99.90
19692;DHT22;42748;50.016;19.890;2022-10-16T06:09:35;14.10;99.90
19692;DHT22;42748;50.016;19.890;2022-10-16T06:12:03;14.10;99.90
19692;DHT22;42748;50.016;19.890;2022-10-16T06:14:30;14.10;99.90
19692;DHT22;42748;50.016;19.890;2022-10-16T06:16:57;14.10;99.90
19692;DHT22;42748;50.016;19.890;2022-10-16T06:19:24;14.10;99.90
19692;DHT22;42748;50.016;19.890;2022-10-16T06:21:51;13.90;99.90
19692;DHT22;42748;50.016;19.890;2022-10-16T06:24:18;13.70;99.90
19692;DHT22;42748;50.016;19.890;2022-10-16T06:26:45;13.70;99.90
19692;DHT22;42748;50.016;19.890;2022-10-16T06:29:13;13.90;99.90
19692;DHT22;42748;50.016;19.890;2022-10-16T06:31:40;14.10;99.90
19692;DHT22;42748;50.016;19.890;2022-10-16T06:34:09;14.20;99.90
19692;DHT22;42748;50.016;19.890;2022-10-16T06:36:38;14.30;99.90
19692;DHT22;42748;50.016;19.890;2022-10-16T06:39:05;14.40;99.90
19692;DHT22;42748;50.016;19.890;2022-10-16T06:41:34;14.50;99.90
19692;DHT22;42748;50.016;19.890;2022-10-16T06:44:14;14.50;99.90
19692;DHT22;42748;50.016;19.890;2022-10-16T06:46:42;14.60;99.90
19692;DHT22;42748;50.016;19.890;2022-10-16T06:49:09;14.60;99.90
19692;DHT22;42748;50.016;19.890;2022-10-16T06:51:36;14.70;99.90
19692;DHT22;42748;50.016;19.890;2022-10-16T06:54:09;14.90;99.90
19692;DHT22;42748;50.016;19.890;2022-10-16T06:56:36;15.10;99.90
19692;DHT22;42748;50.016;19.890;2022-10-16T06:59:04;15.00;99.90
19692;DHT22;42748;50.016;19.890;2022-10-16T07:01:32;14.80;99.90
19692;DHT22;42748;50.016;19.890;2022-10-16T07:04:00;14.70;99.90
19692;DHT22;42748;50.016;19.890;2022-10-16T07:06:32;14.70;99.90
19692;DHT22;42748;50.016;19.890;2022-10-16T07:09:03;14.70;99.90
19692;DHT22;42748;50.016;19.890;2022-10-16T07:11:30;14.70;99.90
19692;DHT22;42748;50.016;19.890;2022-10-16T07:13:57;14.70;99.90
19692;DHT22;42748;50.016;19.890;2022-10-16T07:16:27;14.60;99.90
19692;DHT22;42748;50.016;19.890;2022-10-16T07:18:59;14.50;99.90
19692;DHT22;42748;50.016;19.890;2022-10-16T07:21:30;14.60;99.90
19692;DHT22;42748;50.016;19.890;2022-10-16T07:23:59;14.80;99.90
19692;DHT22;42748;50.016;19.890;2022-10-16T07:26:30;15.30;99.90
19692;DHT22;42748;50.016;19.890;2022-10-16T07:28:58;15.50;99.90
19692;DHT22;42748;50.016;19.890;2022-10-16T07:31:25;15.60;99.90
19692;DHT22;42748;50.016;19.890;2022-10-16T07:33:58;15.60;99.90
19692;DHT22;42748;50.016;19.890;2022-10-16T07:36:26;15.80;99.90
19692;DHT22;42748;50.016;19.890;2022-10-16T07:38:53;16.00;99.90
19692;DHT22;42748;50.016;19.890;2022-10-16T07:41:26;16.30;99.90
19692;DHT22;42748;50.016;19.890;2022-10-16T07:43:54;16.30;99.90
19692;DHT22;42748;50.016;19.890;2022-10-16T07:46:23;16.40;99.90
19692;DHT22;42748;50.016;19.890;2022-10-16T07:48:50;16.50;99.90
19692;DHT22;42748;50.016;19.890;2022-10-16T07:51:20;16.50;99.90
19692;DHT22;42748;50.016;19.890;2022-10-16T07:53:48;16.50;99.90
19692;DHT22;42748;50.016;19.890;2022-10-16T07:56:17;16.40;99.90
19692;DHT22;42748;50.016;19.890;2022-10-16T07:58:44;16.50;99.90
19692;DHT22;42748;50.016;19.890;2022-10-16T08:01:14;16.70;99.90
19692;DHT22;42748;50.016;19.890;2022-10-16T08:03:49;16.70;99.90
19692;DHT22;42748;50.016;19.890;2022-10-16T08:06:18;16.90;99.90
19692;DHT22;42748;50.016;19.890;2022-10-16T08:08:51;17.00;99.90
19692;DHT22;42748;50.016;19.890;2022-10-16T08:11:18;17.10;99.90
19692;DHT22;42748;50.016;19.890;2022-10-16T08:13:45;17.20;99.90
19692;DHT22;42748;50.016;19.890;2022-10-16T08:16:12;17.30;99.90
19692;DHT22;42748;50.016;19.890;2022-10-16T08:18:40;17.40;99.90
19692;DHT22;42748;50.016;19.890;2022-10-16T08:21:13;17.60;99.90
19692;DHT22;42748;50.016;19.890;2022-10-16T08:23:46;17.80;99.90
19692;DHT22;42748;50.016;19.890;2022-10-16T08:26:20;17.80;99.90
19692;DHT22;42748;50.016;19.890;2022-10-16T08:28:50;18.10;99.90
19692;DHT22;42748;50.016;19.890;2022-10-16T08:31:18;18.30;99.90
19692;DHT22;42748;50.016;19.890;2022-10-16T08:33:46;18.70;99.90
19692;DHT22;42748;50.016;19.890;2022-10-16T08:36:15;18.80;99.90
19692;DHT22;42748;50.016;19.890;2022-10-16T08:38:42;19.10;99.90
19692;DHT22;42748;50.016;19.890;2022-10-16T08:44:16;20.00;99.90
19692;DHT22;42748;50.016;19.890;2022-10-16T08:49:20;20.90;99.90
19692;DHT22;42748;50.016;19.890;2022-10-16T08:51:47;20.90;99.90
19692;DHT22;42748;50.016;19.890;2022-10-16T08:54:36;20.90;99.90
19692;DHT22;42748;50.016;19.890;2022-10-16T08:57:21;21.30;99.90
19692;DHT22;42748;50.016;19.890;2022-10-16T08:59:51;21.70;98.30
19692;DHT22;42748;50.016;19.890;2022-10-16T09:05:36;21.70;97.20
19692;DHT22;42748;50.016;19.890;2022-10-16T09:08:03;22.20;96.60
19692;DHT22;42748;50.016;19.890;2022-10-16T09:13:17;22.00;97.40
19692;DHT22;42748;50.016;19.890;2022-10-16T09:21:46;21.40;96.10
19692;DHT22;42748;50.016;19.890;2022-10-16T09:24:18;21.60;96.00
19692;DHT22;42748;50.016;19.890;2022-10-16T09:26:51;21.90;95.00
19692;DHT22;42748;50.016;19.890;2022-10-16T09:29:21;22.10;94.70
19692;DHT22;42748;50.016;19.890;2022-10-16T09:31:54;22.00;94.50
19692;DHT22;42748;50.016;19.890;2022-10-16T09:34:33;22.10;95.10
19692;DHT22;42748;50.016;19.890;2022-10-16T09:37:05;21.90;94.80
19692;DHT22;42748;50.016;19.890;2022-10-16T09:39:50;21.80;95.40
19692;DHT22;42748;50.016;19.890;2022-10-16T09:42:20;22.00;94.70
19692;DHT22;42748;50.016;19.890;2022-10-16T09:44:50;21.80;94.90
19692;DHT22;42748;50.016;19.890;2022-10-16T09:47:23;21.90;94.70
19692;DHT22;42748;50.016;19.890;2022-10-16T09:49:58;21.80;94.20
19692;DHT22;42748;50.016;19.890;2022-10-16T09:52:29;21.90;94.00
19692;DHT22;42748;50.016;19.890;2022-10-16T09:54:59;22.20;93.30
19692;DHT22;42748;50.016;19.890;2022-10-16T09:57:26;22.10;93.90
19692;DHT22;42748;50.016;19.890;2022-10-16T09:59:56;22.20;93.90
19692;DHT22;42748;50.016;19.890;2022-10-16T10:02:34;22.40;93.50
19692;DHT22;42748;50.016;19.890;2022-10-16T10:05:05;22.20;93.90
19692;DHT22;42748;50.016;19.890;2022-10-16T10:07:39;22.30;93.20
19692;DHT22;42748;50.016;19.890;2022-10-16T10:10:26;22.20;93.80
19692;DHT22;42748;50.016;19.890;2022-10-16T10:12:55;22.30;93.90
19692;DHT22;42748;50.016;19.890;2022-10-16T10:15:25;22.10;95.10
19692;DHT22;42748;50.016;19.890;2022-10-16T10:17:56;22.10;94.70
19692;DHT22;42748;50.016;19.890;2022-10-16T10:20:34;22.00;94.40
19692;DHT22;42748;50.016;19.890;2022-10-16T10:23:23;22.40;92.40
19692;DHT22;42748;50.016;19.890;2022-10-16T10:26:11;22.60;91.50
19692;DHT22;42748;50.016;19.890;2022-10-16T10:34:18;22.90;90.90
19692;DHT22;42748;50.016;19.890;2022-10-16T10:37:04;22.60;91.00
19692;DHT22;42748;50.016;19.890;2022-10-16T10:39:40;22.40;90.70
19692;DHT22;42748;50.016;19.890;2022-10-16T10:42:37;22.80;92.00
19692;DHT22;42748;50.016;19.890;2022-10-16T10:50:43;22.90;90.90
19692;DHT22;42748;50.016;19.890;2022-10-16T10:53:25;22.70;90.80
19692;DHT22;42748;50.016;19.890;2022-10-16T10:56:15;22.60;91.40
19692;DHT22;42748;50.016;19.890;2022-10-16T10:59:01;22.60;91.50
19692;DHT22;42748;50.016;19.890;2022-10-16T11:01:39;22.60;91.10
19692;DHT22;42748;50.016;19.890;2022-10-16T11:07:41;22.20;90.40
19692;DHT22;42748;50.016;19.890;2022-10-16T11:10:24;22.20;91.00
19692;DHT22;42748;50.016;19.890;2022-10-16T11:13:04;22.30;91.80
19692;DHT22;42748;50.016;19.890;2022-10-16T11:15:37;22.30;92.00
19692;DHT22;42748;50.016;19.890;2022-10-16T11:18:21;22.30;91.70
19692;DHT22;42748;50.016;19.890;2022-10-16T11:21:00;22.30;90.90
19692;DHT22;42748;50.016;19.890;2022-10-16T11:26:20;22.20;92.50
19692;DHT22;42748;50.016;19.890;2022-10-16T11:28:53;22.20;91.50
19692;DHT22;42748;50.016;19.890;2022-10-16T11:36:57;22.20;92.80
19692;DHT22;42748;50.016;19.890;2022-10-16T11:39:32;21.90;91.60
19692;DHT22;42748;50.016;19.890;2022-10-16T11:42:02;21.90;92.10
19692;DHT22;42748;50.016;19.890;2022-10-16T11:50:37;21.80;93.10
19692;DHT22;42748;50.016;19.890;2022-10-16T11:55:55;21.60;92.80
19692;DHT22;42748;50.016;19.890;2022-10-16T12:06:52;21.40;91.80
19692;DHT22;42748;50.016;19.890;2022-10-16T12:09:30;21.40;91.60
19692;DHT22;42748;50.016;19.890;2022-10-16T12:11:59;21.40;92.00
19692;DHT22;42748;50.016;19.890;2022-10-16T12:14:38;21.30;92.50
19692;DHT22;42748;50.016;19.890;2022-10-16T12:17:37;21.20;92.70
19692;DHT22;42748;50.016;19.890;2022-10-16T12:25:26;21.20;92.70
19692;DHT22;42748;50.016;19.890;2022-10-16T12:28:07;21.30;92.80
19692;DHT22;42748;50.016;19.890;2022-10-16T12:30:52;21.30;92.50
19692;DHT22;42748;50.016;19.890;2022-10-16T12:33:27;21.50;92.20
19692;DHT22;42748;50.016;19.890;2022-10-16T12:35:55;21.60;92.40
19692;DHT22;42748;50.016;19.890;2022-10-16T12:38:37;21.80;92.10
19692;DHT22;42748;50.016;19.890;2022-10-16T12:41:06;21.70;91.40
19692;DHT22;42748;50.016;19.890;2022-10-16T12:43:41;21.80;91.90
19692;DHT22;42748;50.016;19.890;2022-10-16T12:48:41;21.80;91.90
19692;DHT22;42748;50.016;19.890;2022-10-16T13:02:18;21.40;93.30
19692;DHT22;42748;50.016;19.890;2022-10-16T13:05:20;21.30;93.30
19692;DHT22;42748;50.016;19.890;2022-10-16T13:08:24;21.20;93.60
19692;DHT22;42748;50.016;19.890;2022-10-16T13:19:24;21.00;94.60
19692;DHT22;42748;50.016;19.890;2022-10-16T13:27:21;21.00;95.10
19692;DHT22;42748;50.016;19.890;2022-10-16T13:30:01;21.10;95.50
19692;DHT22;42748;50.016;19.890;2022-10-16T13:32:31;21.00;95.40
19692;DHT22;42748;50.016;19.890;2022-10-16T13:34:58;21.00;95.50
19692;DHT22;42748;50.016;19.890;2022-10-16T13:37:26;21.00;96.10
19692;DHT22;42748;50.016;19.890;2022-10-16T13:40:23;20.90;96.40
19692;DHT22;42748;50.016;19.890;2022-10-16T13:42:52;21.00;96.40
19692;DHT22;42748;50.016;19.890;2022-10-16T13:45:22;21.00;96.30
19692;DHT22;42748;50.016;19.890;2022-10-16T13:47:49;21.00;96.30
19692;DHT22;42748;50.016;19.890;2022-10-16T13:50:18;20.90;96.60
19692;DHT22;42748;50.016;19.890;2022-10-16T13:52:45;20.80;97.00
19692;DHT22;42748;50.016;19.890;2022-10-16T13:55:17;20.80;96.70
19692;DHT22;42748;50.016;19.890;2022-10-16T13:57:45;20.70;96.70
19692;DHT22;42748;50.016;19.890;2022-10-16T14:02:51;20.50;97.50
19692;DHT22;42748;50.016;19.890;2022-10-16T14:05:20;20.50;98.10
19692;DHT22;42748;50.016;19.890;2022-10-16T14:07:49;20.50;98.10
19692;DHT22;42748;50.016;19.890;2022-10-16T14:10:27;20.40;98.50
19692;DHT22;42748;50.016;19.890;2022-10-16T14:13:05;20.40;98.80
19692;DHT22;42748;50.016;19.890;2022-10-16T14:15:35;20.40;99.10
19692;DHT22;42748;50.016;19.890;2022-10-16T14:18:03;20.30;99.90
19692;DHT22;42748;50.016;19.890;2022-10-16T14:20:33;20.20;99.90
19692;DHT22;42748;50.016;19.890;2022-10-16T14:26:20;20.10;99.90
19692;DHT22;42748;50.016;19.890;2022-10-16T14:29:00;20.10;99.90
19692;DHT22;42748;50.016;19.890;2022-10-16T14:31:33;20.10;99.90
19692;DHT22;42748;50.016;19.890;2022-10-16T14:34:00;20.10;99.90
19692;DHT22;42748;50.016;19.890;2022-10-16T14:36:28;20.10;99.90
19692;DHT22;42748;50.016;19.890;2022-10-16T14:39:13;20.00;99.90
19692;DHT22;42748;50.016;19.890;2022-10-16T14:41:48;20.00;99.90
19692;DHT22;42748;50.016;19.890;2022-10-16T14:44:18;20.00;99.90
19692;DHT22;42748;50.016;19.890;2022-10-16T14:46:46;19.90;99.90
19692;DHT22;42748;50.016;19.890;2022-10-16T14:49:17;19.90;99.90
19692;DHT22;42748;50.016;19.890;2022-10-16T14:51:47;19.90;99.90
19692;DHT22;42748;50.016;19.890;2022-10-16T14:54:18;19.90;99.90
19692;DHT22;42748;50.016;19.890;2022-10-16T14:56:54;19.90;99.90
19692;DHT22;42748;50.016;19.890;2022-10-16T14:59:51;19.90;99.90
19692;DHT22;42748;50.016;19.890;2022-10-16T15:02:35;19.80;99.90
19692;DHT22;42748;50.016;19.890;2022-10-16T15:05:19;19.80;99.90
19692;DHT22;42748;50.016;19.890;2022-10-16T15:07:47;19.60;99.90
19692;DHT22;42748;50.016;19.890;2022-10-16T15:10:18;19.60;99.90
19692;DHT22;42748;50.016;19.890;2022-10-16T15:12:47;19.50;99.90
19692;DHT22;42748;50.016;19.890;2022-10-16T15:15:30;19.50;99.90
19692;DHT22;42748;50.016;19.890;2022-10-16T15:17:58;19.50;99.90
19692;DHT22;42748;50.016;19.890;2022-10-16T15:20:37;19.40;99.90
19692;DHT22;42748;50.016;19.890;2022-10-16T15:23:14;19.40;99.90
19692;DHT22;42748;50.016;19.890;2022-10-16T15:25:47;19.30;99.90
19692;DHT22;42748;50.016;19.890;2022-10-16T15:28:18;19.30;99.90
19692;DHT22;42748;50.016;19.890;2022-10-16T15:30:48;19.20;99.90
19692;DHT22;42748;50.016;19.890;2022-10-16T15:33:18;19.10;99.90
19692;DHT22;42748;50.016;19.890;2022-10-16T15:35:50;19.10;99.90
19692;DHT22;42748;50.016;19.890;2022-10-16T15:38:19;19.00;99.90
19692;DHT22;42748;50.016;19.890;2022-10-16T15:40:50;19.00;99.90
19692;DHT22;42748;50.016;19.890;2022-10-16T15:43:18;18.90;99.90
19692;DHT22;42748;50.016;19.890;2022-10-16T15:45:59;18.80;99.90
19692;DHT22;42748;50.016;19.890;2022-10-16T15:48:29;18.80;99.90
19692;DHT22;42748;50.016;19.890;2022-10-16T15:50:57;18.70;99.90
19692;DHT22;42748;50.016;19.890;2022-10-16T15:53:24;18.70;99.90
19692;DHT22;42748;50.016;19.890;2022-10-16T15:55:51;18.60;99.90
19692;DHT22;42748;50.016;19.890;2022-10-16T15:58:23;18.50;99.90
19692;DHT22;42748;50.016;19.890;2022-10-16T16:00:55;18.40;99.90
19692;DHT22;42748;50.016;19.890;2022-10-16T16:03:23;18.40;99.90
19692;DHT22;42748;50.016;19.890;2022-10-16T16:05:51;18.40;99.90
19692;DHT22;42748;50.016;19.890;2022-10-16T16:08:20;18.30;99.90
19692;DHT22;42748;50.016;19.890;2022-10-16T16:11:01;18.20;99.90
19692;DHT22;42748;50.016;19.890;2022-10-16T16:13:28;18.20;99.90
19692;DHT22;42748;50.016;19.890;2022-10-16T16:15:55;18.20;99.90
19692;DHT22;42748;50.016;19.890;2022-10-16T16:18:22;18.20;99.90
19692;DHT22;42748;50.016;19.890;2022-10-16T16:20:51;18.20;99.90
19692;DHT22;42748;50.016;19.890;2022-10-16T16:23:18;18.20;99.90
19692;DHT22;42748;50.016;19.890;2022-10-16T16:26:03;18.10;99.90
19692;DHT22;42748;50.016;19.890;2022-10-16T16:28:30;18.10;99.90
19692;DHT22;42748;50.016;19.890;2022-10-16T16:30:58;18.00;99.90
19692;DHT22;42748;50.016;19.890;2022-10-16T16:33:25;18.00;99.90
19692;DHT22;42748;50.016;19.890;2022-10-16T16:36:00;17.90;99.90
19692;DHT22;42748;50.016;19.890;2022-10-16T16:38:28;17.80;99.90
19692;DHT22;42748;50.016;19.890;2022-10-16T16:40:56;17.80;99.90
19692;DHT22;42748;50.016;19.890;2022-10-16T16:43:24;17.80;99.90
19692;DHT22;42748;50.016;19.890;2022-10-16T16:45:52;17.70;99.90
19692;DHT22;42748;50.016;19.890;2022-10-16T16:48:20;17.70;99.90
19692;DHT22;42748;50.016;19.890;2022-10-16T16:50:47;17.60;99.90
19692;DHT22;42748;50.016;19.890;2022-10-16T16:53:14;17.70;99.90
19692;DHT22;42748;50.016;19.890;2022-10-16T16:55:41;17.60;99.90
19692;DHT22;42748;50.016;19.890;2022-10-16T16:58:09;17.60;99.90
19692;DHT22;42748;50.016;19.890;2022-10-16T17:00:36;17.50;99.90
19692;DHT22;42748;50.016;19.890;2022-10-16T17:03:03;17.40;99.90
19692;DHT22;42748;50.016;19.890;2022-10-16T17:05:31;17.40;99.90
19692;DHT22;42748;50.016;19.890;2022-10-16T17:07:58;17.30;99.90
19692;DHT22;42748;50.016;19.890;2022-10-16T17:10:25;17.30;99.90
19692;DHT22;42748;50.016;19.890;2022-10-16T17:12:52;17.20;99.90
19692;DHT22;42748;50.016;19.890;2022-10-16T17:15:20;17.20;99.90
19692;DHT22;42748;50.016;19.890;2022-10-16T17:17:47;17.10;99.90
19692;DHT22;42748;50.016;19.890;2022-10-16T17:20:15;17.10;99.90
19692;DHT22;42748;50.016;19.890;2022-10-16T17:22:42;17.00;99.90
19692;DHT22;42748;50.016;19.890;2022-10-16T17:25:10;17.00;99.90
19692;DHT22;42748;50.016;19.890;2022-10-16T17:27:39;17.00;99.90
19692;DHT22;42748;50.016;19.890;2022-10-16T17:30:06;17.00;99.90